Notl Queenston

*Note: All times are displayed in the local standard time of the station location.
**Rain - Equipment is designed to accurately record liquid precipitation; under conditions when precipitation is not in liquid form, the data displayed may not properly reflect rainfall values.

Date Max Temp
(°C)
Min Temp
(°C)
Avg Temp
(°C)
Rain (mm) Avg RH (%) Solar Rad (kJ/m2)
Sat, Oct 21, 2017 23.0 10.7 16.4 0.0 67.9 7071.2
Fri, Oct 20, 2017 21.1 6.3 13.9 0.0 57.5 9190.0
Thu, Oct 19, 2017 20.5 10.5 15.9 0.0 67.5 8664.0
Wed, Oct 18, 2017 20.4 11.2 16.0 0.0 65.3 9373.0
Tue, Oct 17, 2017 17.8 2.1 12.2 0.0 72.3 8323.9
Mon, Oct 16, 2017 9.8 2.4 7.2 0.0 75.2 5895.8
Sun, Oct 15, 2017 25.0 10.0 18.7 0.0 76.3 3368.7
DateTime Avg Temp (°C) Rain (mm) RH (%) Solar Rad (kJ/m2)
Sun, Oct 22, 2017 12:00 21.2 0.0 54.8 1071.1
Sun, Oct 22, 2017 11:00 19.6 0.0 59.5 920.9
Sun, Oct 22, 2017 10:00 17.4 0.0 64.0 485.6
Sun, Oct 22, 2017 09:00 15.2 0.0 71.5 96.8
Sun, Oct 22, 2017 08:00 15.1 0.0 73.8 9.2
Sun, Oct 22, 2017 07:00 15.5 0.0 70.8 -
Sun, Oct 22, 2017 06:00 15.4 0.0 71.8 0.0
Sun, Oct 22, 2017 05:00 15.6 0.0 67.5 -
Sun, Oct 22, 2017 04:00 16.4 0.0 61.3 0.0
Sun, Oct 22, 2017 03:00 16.8 0.0 58.8 -
Sun, Oct 22, 2017 02:00 17.2 0.0 57.3 -
Sun, Oct 22, 2017 01:00 17.4 0.0 57.0 -
Sun, Oct 22, 2017 00:00 17.2 0.0 58.3 0.0
Sat, Oct 21, 2017 23:00 16.9 0.0 57.5 -
Sat, Oct 21, 2017 22:00 12.2 0.0 87.3 0.0
Sat, Oct 21, 2017 21:00 10.9 0.0 100.0 -
Sat, Oct 21, 2017 20:00 11.3 0.0 96.5 -
Sat, Oct 21, 2017 19:00 14.6 0.0 82.5 12.1
Sat, Oct 21, 2017 18:00 20.1 0.0 54.8 238.6
Sat, Oct 21, 2017 17:00 21.8 0.0 43.8 473.3
Sat, Oct 21, 2017 16:00 22.5 0.0 42.0 799.5
Sat, Oct 21, 2017 15:00 22.9 0.0 42.0 988.1
Sat, Oct 21, 2017 14:00 22.6 0.0 44.3 1195.3
Sat, Oct 21, 2017 13:00 21.2 0.0 47.8 1146.0
Sat, Oct 21, 2017 12:00 19.3 0.0 53.8 913.0
Sat, Oct 21, 2017 11:00 17.5 0.0 58.8 708.3
Sat, Oct 21, 2017 10:00 16.0 0.0 65.0 465.3
Sat, Oct 21, 2017 09:00 13.8 0.0 74.3 119.9
Sat, Oct 21, 2017 08:00 13.8 0.0 75.5 11.8
Sat, Oct 21, 2017 07:00 13.9 0.0 78.0 0.0
Sat, Oct 21, 2017 06:00 14.3 0.0 75.3 0.0
Sat, Oct 21, 2017 05:00 14.5 0.0 73.0 -
Sat, Oct 21, 2017 04:00 14.3 0.0 74.5 0.0
Sat, Oct 21, 2017 03:00 14.0 0.0 78.5 -
Sat, Oct 21, 2017 02:00 14.1 0.0 82.3 -
Sat, Oct 21, 2017 01:00 14.2 0.0 83.8 -
Sat, Oct 21, 2017 00:00 12.8 0.0 85.8 -
Fri, Oct 20, 2017 23:00 11.5 0.0 88.5 -
Fri, Oct 20, 2017 22:00 11.9 0.0 86.3 -
Fri, Oct 20, 2017 21:00 14.1 0.0 67.0 -
Fri, Oct 20, 2017 20:00 14.0 0.0 49.0 -
Fri, Oct 20, 2017 19:00 14.4 0.0 49.0 17.0
Fri, Oct 20, 2017 18:00 17.8 0.0 37.3 297.0
Fri, Oct 20, 2017 17:00 19.4 0.0 37.3 709.9
Fri, Oct 20, 2017 16:00 20.3 0.0 41.5 1059.5
Fri, Oct 20, 2017 15:00 20.8 0.0 39.8 1302.8
Fri, Oct 20, 2017 14:00 20.8 0.0 35.5 1439.6
Fri, Oct 20, 2017 13:00 19.6 0.0 40.0 1436.0


asterix Register now to access more data! asterix